createdAt,value
2023-05-16T00:02:11.729Z,2.90
2023-05-16T00:04:39.212Z,2.90
2023-05-16T00:07:07.342Z,3.00
2023-05-16T00:09:34.783Z,3.63
2023-05-16T00:12:02.164Z,3.10
2023-05-16T00:14:29.531Z,3.33
2023-05-16T00:17:00.459Z,3.03
2023-05-16T00:19:29.449Z,3.85
2023-05-16T00:24:24.134Z,3.13
2023-05-16T00:26:51.600Z,3.70
2023-05-16T00:29:19.050Z,3.00
2023-05-16T00:31:46.773Z,2.95
2023-05-16T00:34:14.431Z,3.05
2023-05-16T00:36:41.950Z,3.40
2023-05-16T00:39:10.993Z,3.15
2023-05-16T00:41:38.866Z,3.30
2023-05-16T00:44:06.433Z,3.83
2023-05-16T00:46:33.973Z,3.72
2023-05-16T00:49:01.974Z,4.05
2023-05-16T00:51:30.092Z,3.33
2023-05-16T00:53:58.908Z,3.43
2023-05-16T00:56:26.686Z,2.90
2023-05-16T00:58:54.558Z,3.85
2023-05-16T01:01:25.475Z,4.10
2023-05-16T01:03:53.935Z,3.08
2023-05-16T01:06:21.471Z,3.20
2023-05-16T01:08:48.946Z,3.22
2023-05-16T01:11:30.977Z,3.65
2023-05-16T01:15:09.931Z,3.45
2023-05-16T01:18:02.206Z,3.13
2023-05-16T01:20:45.514Z,3.60
2023-05-16T01:23:52.118Z,3.40
2023-05-16T01:26:27.127Z,3.60
2023-05-16T01:28:55.825Z,3.28
2023-05-16T01:31:24.127Z,3.40
2023-05-16T01:33:52.215Z,3.42
2023-05-16T01:36:52.373Z,3.50
2023-05-16T01:39:38.116Z,2.97
2023-05-16T01:42:12.278Z,3.10
2023-05-16T01:44:54.982Z,3.10
2023-05-16T01:47:26.355Z,3.92
2023-05-16T01:49:58.098Z,4.53
2023-05-16T01:52:45.876Z,3.17
2023-05-16T01:55:46.062Z,2.97
2023-05-16T01:58:21.234Z,2.80
2023-05-16T02:00:48.862Z,3.78
2023-05-16T02:03:16.689Z,4.20
2023-05-16T02:05:46.176Z,3.05
2023-05-16T02:08:15.039Z,2.67
2023-05-16T02:10:42.532Z,3.13
2023-05-16T02:13:10.237Z,3.38
2023-05-16T02:15:37.695Z,3.03
2023-05-16T02:18:05.600Z,3.28
2023-05-16T02:20:33.328Z,3.33
2023-05-16T02:23:02.689Z,5.85
2023-05-16T02:25:30.140Z,4.57
2023-05-16T02:27:57.516Z,4.75
2023-05-16T02:30:24.985Z,6.75
2023-05-16T02:32:53.540Z,5.28
2023-05-16T02:35:21.114Z,4.28
2023-05-16T02:37:48.781Z,4.00
2023-05-16T02:40:16.856Z,4.72
2023-05-16T02:42:44.486Z,7.87
2023-05-16T02:45:12.095Z,7.15
2023-05-16T02:47:40.168Z,7.55
2023-05-16T02:50:08.081Z,7.32
2023-05-16T02:52:35.837Z,5.20
2023-05-16T02:55:21.036Z,4.18
2023-05-16T02:57:50.491Z,3.85
2023-05-16T03:00:19.127Z,5.15
2023-05-16T03:02:46.851Z,5.57
2023-05-16T03:05:14.488Z,4.40
2023-05-16T03:07:42.125Z,4.28
2023-05-16T03:10:09.975Z,4.20
2023-05-16T03:12:39.209Z,4.60
2023-05-16T03:15:08.536Z,4.45
2023-05-16T03:20:08.474Z,4.05
2023-05-16T03:22:36.153Z,4.40
2023-05-16T03:25:04.373Z,2.88
2023-05-16T03:27:31.981Z,3.10
2023-05-16T03:29:59.469Z,3.40
2023-05-16T03:32:27.038Z,4.55
2023-05-16T03:34:54.717Z,3.67
2023-05-16T03:37:22.107Z,3.90
2023-05-16T03:39:49.509Z,3.40
2023-05-16T03:42:17.811Z,6.25
2023-05-16T03:44:45.928Z,3.97
2023-05-16T03:47:15.084Z,4.65
2023-05-16T03:49:43.362Z,3.90
2023-05-16T03:52:10.933Z,3.88
2023-05-16T03:54:38.391Z,3.42
2023-05-16T03:57:06.199Z,3.70
2023-05-16T03:59:33.970Z,3.75
2023-05-16T04:02:01.446Z,3.55
2023-05-16T04:04:28.951Z,3.55
2023-05-16T04:06:56.453Z,4.00
2023-05-16T04:09:24.073Z,3.15
2023-05-16T04:11:51.506Z,3.15
2023-05-16T04:14:19.226Z,3.00
2023-05-16T04:16:46.829Z,4.22
2023-05-16T04:19:14.314Z,3.65
2023-05-16T04:21:42.428Z,3.42
2023-05-16T04:24:10.253Z,4.38
2023-05-16T04:26:37.779Z,3.45
2023-05-16T04:29:05.507Z,3.38
2023-05-16T04:31:33.371Z,2.60
2023-05-16T04:34:00.978Z,3.60
2023-05-16T04:36:29.607Z,3.38
2023-05-16T04:38:57.241Z,3.15
2023-05-16T04:41:24.706Z,3.65
2023-05-16T04:43:53.122Z,2.70
2023-05-16T04:46:20.665Z,3.45
2023-05-16T04:48:48.536Z,3.58
2023-05-16T04:51:16.269Z,4.30
2023-05-16T04:53:43.732Z,3.38
2023-05-16T04:56:11.565Z,3.17
2023-05-16T04:58:40.427Z,3.10
2023-05-16T05:01:09.043Z,3.30
2023-05-16T05:03:36.872Z,3.10
2023-05-16T05:06:04.837Z,3.10
2023-05-16T05:08:32.504Z,4.20
2023-05-16T05:11:00.118Z,3.20
2023-05-16T05:13:27.589Z,3.00
2023-05-16T05:15:55.175Z,5.05
2023-05-16T05:18:22.723Z,3.03
2023-05-16T05:20:52.034Z,3.42
2023-05-16T05:23:20.257Z,2.65
2023-05-16T05:25:47.902Z,3.25
2023-05-16T05:28:16.029Z,3.80
2023-05-16T05:30:43.958Z,3.15
2023-05-16T05:33:16.847Z,2.95
2023-05-16T05:35:44.492Z,3.90
2023-05-16T05:38:12.192Z,3.55
2023-05-16T05:40:39.877Z,3.33
2023-05-16T05:43:07.431Z,3.80
2023-05-16T05:45:35.134Z,3.10
2023-05-16T05:48:02.912Z,3.45
2023-05-16T05:50:30.595Z,3.67
2023-05-16T05:52:58.401Z,3.75
2023-05-16T05:55:26.326Z,3.93
2023-05-16T05:57:53.883Z,4.20
2023-05-16T06:00:21.769Z,2.85
2023-05-16T06:02:49.651Z,5.13
2023-05-16T06:05:17.239Z,5.13
2023-05-16T06:07:44.969Z,4.82
2023-05-16T06:10:12.651Z,4.20
2023-05-16T06:12:40.204Z,5.30
2023-05-16T06:15:09.561Z,5.35
2023-05-16T06:17:37.236Z,4.88
2023-05-16T06:20:06.113Z,3.15
2023-05-16T06:25:01.284Z,3.58
2023-05-16T06:27:28.717Z,3.35
2023-05-16T06:29:56.263Z,3.30
2023-05-16T06:32:23.801Z,3.03
2023-05-16T06:34:51.342Z,3.38
2023-05-16T06:37:18.862Z,3.75
2023-05-16T06:39:46.255Z,3.00
2023-05-16T06:42:13.850Z,3.45
2023-05-16T06:44:41.313Z,3.00
2023-05-16T06:47:08.878Z,3.60
2023-05-16T06:49:36.514Z,3.42
2023-05-16T06:52:04.851Z,3.78
2023-05-16T06:54:32.620Z,4.00
2023-05-16T06:57:00.226Z,3.65
2023-05-16T06:59:28.289Z,5.35
2023-05-16T07:01:55.923Z,5.13
2023-05-16T07:04:23.748Z,5.10
2023-05-16T07:06:54.093Z,3.90
2023-05-16T07:09:21.455Z,3.85
2023-05-16T07:11:48.986Z,4.60
2023-05-16T07:14:16.592Z,4.68
2023-05-16T07:16:44.293Z,4.35
2023-05-16T07:19:11.960Z,4.22
2023-05-16T07:21:39.693Z,4.47
2023-05-16T07:24:07.518Z,4.35
2023-05-16T07:26:35.686Z,5.22
2023-05-16T07:29:03.889Z,5.40
2023-05-16T07:31:31.679Z,4.47
2023-05-16T07:33:59.372Z,4.60
2023-05-16T07:36:27.047Z,10.50
2023-05-16T07:38:54.525Z,5.53
2023-05-16T07:41:22.431Z,5.13
2023-05-16T07:43:49.960Z,4.10
2023-05-16T07:46:17.426Z,3.45
2023-05-16T07:48:45.096Z,4.72
2023-05-16T07:51:12.716Z,3.47
2023-05-16T07:53:40.674Z,4.20
2023-05-16T07:56:08.847Z,4.55
2023-05-16T07:58:38.009Z,3.53
2023-05-16T08:01:05.924Z,4.32
2023-05-16T08:03:34.822Z,4.22
2023-05-16T08:06:02.502Z,4.13
2023-05-16T08:08:30.336Z,4.17
2023-05-16T08:10:57.840Z,3.10
2023-05-16T08:13:25.513Z,3.88
2023-05-16T08:15:53.117Z,3.65
2023-05-16T08:18:22.500Z,3.65
2023-05-16T08:20:50.802Z,3.10
2023-05-16T08:23:18.959Z,3.33
2023-05-16T08:25:46.428Z,4.13
2023-05-16T08:28:14.173Z,3.50
2023-05-16T08:30:43.124Z,4.30
2023-05-16T08:33:11.578Z,3.78
2023-05-16T08:35:43.566Z,4.00
2023-05-16T08:38:11.254Z,3.53
2023-05-16T08:40:40.403Z,3.58
2023-05-16T08:43:07.983Z,3.63
2023-05-16T08:45:35.714Z,4.05
2023-05-16T08:48:07.224Z,3.55
2023-05-16T08:50:36.396Z,5.00
2023-05-16T08:53:09.261Z,4.88
2023-05-16T08:55:42.463Z,4.88
2023-05-16T08:58:10.668Z,4.75
2023-05-16T09:00:39.163Z,5.18
2023-05-16T09:05:34.736Z,5.10
2023-05-16T09:08:02.379Z,4.07
2023-05-16T09:10:30.145Z,3.45
2023-05-16T09:12:57.708Z,4.43
2023-05-16T09:15:32.687Z,4.10
2023-05-16T09:18:02.445Z,4.63
2023-05-16T09:20:30.741Z,3.47
2023-05-16T09:22:59.897Z,4.00
2023-05-16T09:25:31.762Z,3.92
2023-05-16T09:28:01.525Z,4.45
2023-05-16T09:30:33.119Z,5.05
2023-05-16T09:33:01.317Z,4.18
2023-05-16T09:37:59.406Z,4.50
2023-05-16T09:40:26.936Z,3.42
2023-05-16T09:43:07.355Z,3.17
2023-05-16T09:45:36.403Z,3.97
2023-05-16T09:48:08.805Z,3.65
2023-05-16T09:50:37.667Z,3.70
2023-05-16T09:55:33.479Z,7.10
2023-05-16T09:58:01.279Z,5.85
2023-05-16T10:00:33.417Z,5.72
2023-05-16T10:03:06.292Z,5.82
2023-05-16T10:05:35.363Z,4.55
2023-05-16T10:08:04.615Z,4.80
2023-05-16T10:10:37.717Z,5.00
2023-05-16T10:13:08.234Z,5.03
2023-05-16T10:15:37.473Z,5.32
2023-05-16T10:18:11.315Z,6.55
2023-05-16T10:20:42.401Z,4.85
2023-05-16T10:23:18.581Z,6.45
2023-05-16T10:25:48.760Z,4.85
2023-05-16T10:28:16.613Z,5.72
2023-05-16T10:30:47.767Z,5.10
2023-05-16T10:33:19.031Z,5.53
2023-05-16T10:35:46.875Z,5.68
2023-05-16T10:38:18.047Z,4.60
2023-05-16T10:40:47.992Z,5.30
2023-05-16T10:43:26.197Z,5.75
2023-05-16T10:46:02.476Z,5.47
2023-05-16T10:48:37.083Z,5.88
2023-05-16T10:51:33.371Z,5.82
2023-05-16T10:54:14.203Z,4.85
2023-05-16T10:56:42.706Z,3.90
2023-05-16T10:59:24.724Z,4.65
2023-05-16T11:01:54.242Z,4.20
2023-05-16T11:04:21.728Z,4.15
2023-05-16T11:06:53.456Z,3.30
2023-05-16T11:09:26.926Z,4.57
2023-05-16T11:12:05.888Z,5.70
2023-05-16T11:14:44.525Z,4.68
2023-05-16T11:17:26.726Z,5.28
2023-05-16T11:19:58.707Z,5.63
2023-05-16T11:22:29.173Z,4.82
2023-05-16T11:25:06.759Z,5.40
2023-05-16T11:27:47.731Z,5.07
2023-05-16T11:30:19.028Z,4.93
2023-05-16T11:32:47.921Z,4.00
2023-05-16T11:35:17.540Z,4.93
2023-05-16T11:37:46.994Z,5.57
2023-05-16T11:40:16.493Z,4.70
2023-05-16T11:42:48.737Z,4.50
2023-05-16T11:45:19.186Z,4.75
2023-05-16T11:47:48.443Z,4.75
2023-05-16T11:50:22.931Z,5.50
2023-05-16T11:52:53.025Z,4.63
2023-05-16T11:55:36.835Z,4.80
2023-05-16T11:58:09.497Z,4.03
2023-05-16T12:00:46.746Z,4.18
2023-05-16T12:03:14.581Z,3.35
2023-05-16T12:05:57.307Z,4.05
2023-05-16T12:08:24.813Z,4.55
2023-05-16T12:10:53.206Z,4.97
2023-05-16T12:13:23.483Z,4.53
2023-05-16T12:15:54.822Z,3.30
2023-05-16T12:18:24.394Z,4.20
2023-05-16T12:20:52.552Z,3.90
2023-05-16T12:23:20.162Z,3.08
2023-05-16T12:25:48.713Z,3.90
2023-05-16T12:28:16.637Z,4.07
2023-05-16T12:30:47.346Z,3.83
2023-05-16T12:33:16.445Z,4.57
2023-05-16T12:35:47.156Z,4.50
2023-05-16T12:38:17.003Z,3.90
2023-05-16T12:40:45.510Z,3.67
2023-05-16T12:45:42.614Z,4.70
2023-05-16T12:50:48.187Z,3.97
2023-05-16T12:53:18.099Z,3.33
2023-05-16T12:55:46.407Z,3.65
2023-05-16T12:58:13.974Z,4.40
2023-05-16T13:00:41.441Z,4.53
2023-05-16T13:03:09.124Z,4.22
2023-05-16T13:05:36.798Z,3.57
2023-05-16T13:08:04.715Z,3.90
2023-05-16T13:10:32.238Z,3.17
2023-05-16T13:12:59.959Z,4.22
2023-05-16T13:15:28.250Z,4.57
2023-05-16T13:17:56.417Z,2.90
2023-05-16T13:20:24.133Z,3.63
2023-05-16T13:22:51.566Z,3.60
2023-05-16T13:25:19.099Z,3.50
2023-05-16T13:27:48.707Z,2.83
2023-05-16T13:30:16.274Z,3.03
2023-05-16T13:32:44.151Z,3.03
2023-05-16T13:35:11.772Z,3.70
2023-05-16T13:37:40.731Z,4.38
2023-05-16T13:40:09.675Z,3.35
2023-05-16T13:42:38.032Z,3.78
2023-05-16T13:45:07.289Z,4.00
2023-05-16T13:47:35.142Z,3.97
2023-05-16T13:50:07.127Z,3.83
2023-05-16T13:52:37.731Z,3.10
2023-05-16T13:55:07.437Z,4.03
2023-05-16T13:57:36.098Z,3.22
2023-05-16T14:00:35.092Z,3.47
2023-05-16T14:02:59.324Z,4.65
2023-05-16T14:05:27.188Z,4.68
2023-05-16T14:07:54.725Z,3.63
2023-05-16T14:10:22.764Z,4.07
2023-05-16T14:12:51.331Z,3.30
2023-05-16T14:15:18.920Z,3.10
2023-05-16T14:17:46.644Z,3.72
2023-05-16T14:20:14.833Z,3.85
2023-05-16T14:22:42.439Z,3.85
2023-05-16T14:25:10.026Z,3.42
2023-05-16T14:27:37.815Z,3.40
2023-05-16T14:30:07.399Z,2.85
2023-05-16T14:32:35.078Z,5.28
2023-05-16T14:35:04.681Z,4.10
2023-05-16T14:37:32.476Z,3.60
2023-05-16T14:40:00.274Z,3.92
2023-05-16T14:42:27.946Z,4.20
2023-05-16T14:44:55.460Z,4.72
2023-05-16T14:47:23.656Z,3.95
2023-05-16T14:49:52.477Z,3.42
2023-05-16T14:54:47.555Z,3.17
2023-05-16T14:57:33.968Z,2.57
2023-05-16T15:00:01.566Z,3.90
2023-05-16T15:02:29.243Z,3.25
2023-05-16T15:04:57.021Z,3.90
2023-05-16T15:07:25.511Z,3.58
2023-05-16T15:09:52.998Z,3.42
2023-05-16T15:12:21.178Z,4.72
2023-05-16T15:14:48.583Z,4.18
2023-05-16T15:17:16.290Z,3.40
2023-05-16T15:19:44.080Z,2.95
2023-05-16T15:22:11.796Z,3.53
2023-05-16T15:24:39.553Z,3.05
2023-05-16T15:27:07.222Z,3.13
2023-05-16T15:29:35.008Z,3.53
2023-05-16T15:32:06.344Z,4.82
2023-05-16T15:34:35.006Z,5.55
2023-05-16T15:37:02.661Z,4.25
2023-05-16T15:39:30.258Z,6.05
2023-05-16T15:42:10.049Z,5.97
2023-05-16T15:44:39.225Z,4.00
2023-05-16T15:49:35.835Z,3.72
2023-05-16T15:52:04.429Z,4.03
2023-05-16T15:54:32.354Z,4.10
2023-05-16T15:56:59.956Z,2.13
2023-05-16T15:59:27.427Z,3.65
2023-05-16T16:01:55.488Z,3.60
2023-05-16T16:04:23.695Z,3.47
2023-05-16T16:06:51.503Z,3.50
2023-05-16T16:09:18.943Z,3.72
2023-05-16T16:11:46.353Z,4.03
2023-05-16T16:14:14.143Z,3.80
2023-05-16T16:16:41.886Z,4.65
2023-05-16T16:19:09.696Z,3.20
2023-05-16T16:21:37.249Z,3.10
2023-05-16T16:24:05.444Z,5.07
2023-05-16T16:26:32.971Z,4.07
2023-05-16T16:29:00.613Z,3.85
2023-05-16T16:31:28.506Z,2.67
2023-05-16T16:33:56.134Z,2.78
2023-05-16T16:36:23.654Z,3.30
2023-05-16T16:38:51.129Z,3.72
2023-05-16T16:41:18.745Z,3.50
2023-05-16T16:43:46.256Z,2.92
2023-05-16T16:46:13.971Z,3.38
2023-05-16T16:48:41.351Z,3.22
2023-05-16T16:51:08.783Z,4.55
2023-05-16T16:53:37.332Z,6.00
2023-05-16T16:58:32.935Z,6.57
2023-05-16T17:01:00.657Z,5.35
2023-05-16T17:03:28.473Z,6.28
2023-05-16T17:05:56.118Z,5.03
2023-05-16T17:08:23.763Z,6.40
2023-05-16T17:10:51.409Z,5.82
2023-05-16T17:13:19.320Z,5.38
2023-05-16T17:15:47.543Z,6.53
2023-05-16T17:18:15.135Z,4.50
2023-05-16T17:20:42.647Z,4.05
2023-05-16T17:23:10.426Z,4.60
2023-05-16T17:25:38.169Z,4.20
2023-05-16T17:28:05.668Z,5.03
2023-05-16T17:30:33.183Z,3.65
2023-05-16T17:33:00.748Z,3.22
2023-05-16T17:35:28.845Z,4.18
2023-05-16T17:37:56.608Z,3.30
2023-05-16T17:40:26.577Z,4.32
2023-05-16T17:42:55.071Z,3.33
2023-05-16T17:45:22.685Z,3.97
2023-05-16T17:47:50.535Z,3.50
2023-05-16T17:50:19.410Z,3.67
2023-05-16T17:52:47.376Z,4.75
2023-05-16T17:55:15.156Z,4.07
2023-05-16T17:57:43.200Z,3.60
2023-05-16T18:00:14.317Z,3.60
2023-05-16T18:02:42.219Z,4.75
2023-05-16T18:05:11.393Z,3.05
2023-05-16T18:07:39.002Z,4.60
2023-05-16T18:10:08.176Z,3.95
2023-05-16T18:12:38.004Z,5.93
2023-05-16T18:15:07.252Z,7.57
2023-05-16T18:17:34.947Z,4.20
2023-05-16T18:20:08.987Z,4.40
2023-05-16T18:22:41.791Z,3.80
2023-05-16T18:25:10.287Z,5.50
2023-05-16T18:27:38.046Z,4.80
2023-05-16T18:30:06.925Z,5.43
2023-05-16T18:35:03.478Z,3.65
2023-05-16T18:37:31.198Z,4.32
2023-05-16T18:39:59.079Z,3.87
2023-05-16T18:42:26.759Z,7.22
2023-05-16T18:44:54.210Z,10.27
2023-05-16T18:47:21.825Z,8.30
2023-05-16T18:49:49.614Z,5.38
2023-05-16T18:52:17.051Z,4.30
2023-05-16T18:54:44.639Z,4.32
2023-05-16T18:57:12.596Z,4.18
2023-05-16T18:59:40.260Z,6.67
2023-05-16T19:02:07.980Z,4.22
2023-05-16T19:04:35.647Z,5.35
2023-05-16T19:07:04.809Z,5.75
2023-05-16T19:09:33.256Z,6.65
2023-05-16T19:12:00.773Z,5.18
2023-05-16T19:14:28.677Z,4.60
2023-05-16T19:16:56.180Z,4.93
2023-05-16T19:19:24.007Z,3.97
2023-05-16T19:21:51.673Z,3.75
2023-05-16T19:24:19.305Z,6.20
2023-05-16T19:26:46.974Z,8.20
2023-05-16T19:29:14.361Z,5.85
2023-05-16T19:31:41.870Z,5.53
2023-05-16T19:34:09.373Z,5.07
2023-05-16T19:36:37.561Z,6.80
2023-05-16T19:39:05.282Z,5.65
2023-05-16T19:41:32.979Z,5.95
2023-05-16T19:44:00.410Z,5.35
2023-05-16T19:46:27.997Z,4.65
2023-05-16T19:48:55.672Z,5.28
2023-05-16T19:51:37.209Z,6.28
2023-05-16T19:54:08.825Z,7.15
2023-05-16T19:56:36.376Z,6.07
2023-05-16T19:59:04.073Z,4.63
2023-05-16T20:01:31.650Z,3.40
2023-05-16T20:04:00.044Z,4.70
2023-05-16T20:06:27.776Z,4.72
2023-05-16T20:08:55.358Z,5.05
2023-05-16T20:11:22.770Z,5.55
2023-05-16T20:13:50.454Z,3.65
2023-05-16T20:16:19.942Z,3.45
2023-05-16T20:18:47.822Z,4.20
2023-05-16T20:21:15.636Z,3.78
2023-05-16T20:23:43.286Z,4.22
2023-05-16T20:26:14.220Z,5.90
2023-05-16T20:28:42.047Z,5.03
2023-05-16T20:31:10.135Z,3.60
2023-05-16T20:33:37.977Z,3.88
2023-05-16T20:36:05.716Z,6.43
2023-05-16T20:38:33.369Z,4.45
2023-05-16T20:41:03.891Z,4.15
2023-05-16T20:43:31.437Z,4.35
2023-05-16T20:45:59.069Z,5.20
2023-05-16T20:48:26.653Z,5.13
2023-05-16T20:50:54.703Z,3.88
2023-05-16T20:53:22.386Z,4.60
2023-05-16T20:55:49.934Z,4.63
2023-05-16T20:58:17.582Z,5.13
2023-05-16T21:00:45.300Z,4.38
2023-05-16T21:03:14.174Z,7.63
2023-05-16T21:08:09.203Z,4.85
2023-05-16T21:10:36.777Z,4.63
2023-05-16T21:13:04.178Z,4.75
2023-05-16T21:15:31.807Z,4.85
2023-05-16T21:17:59.425Z,5.72
2023-05-16T21:20:29.479Z,6.78
2023-05-16T21:22:57.227Z,8.00
2023-05-16T21:25:24.872Z,7.45
2023-05-16T21:27:52.373Z,6.72
2023-05-16T21:30:20.186Z,6.32
2023-05-16T21:32:47.695Z,8.57
2023-05-16T21:35:15.468Z,6.57
2023-05-16T21:37:42.877Z,9.02
2023-05-16T21:40:14.079Z,7.93
2023-05-16T21:42:41.834Z,5.70
2023-05-16T21:45:15.123Z,5.28
2023-05-16T21:47:43.457Z,6.20
2023-05-16T21:50:11.698Z,8.55
2023-05-16T21:52:40.167Z,8.15
2023-05-16T21:55:08.417Z,9.68
2023-05-16T21:57:36.020Z,7.85
2023-05-16T22:00:08.598Z,6.53
2023-05-16T22:02:36.818Z,7.80
2023-05-16T22:05:05.136Z,4.88
2023-05-16T22:07:32.783Z,6.53
2023-05-16T22:10:00.582Z,8.50
2023-05-16T22:12:28.247Z,9.05
2023-05-16T22:14:56.262Z,7.13
2023-05-16T22:17:23.927Z,6.67
2023-05-16T22:19:51.430Z,5.10
2023-05-16T22:22:19.409Z,5.65
2023-05-16T22:24:47.099Z,5.55
2023-05-16T22:27:14.682Z,4.00
2023-05-16T22:29:42.498Z,5.55
2023-05-16T22:32:10.514Z,3.90
2023-05-16T22:34:39.082Z,3.43
2023-05-16T22:37:09.931Z,1.27
2023-05-16T22:39:37.485Z,2.05
2023-05-16T22:42:05.941Z,2.85
2023-05-16T22:44:33.703Z,3.15
2023-05-16T22:47:01.089Z,2.72
2023-05-16T22:49:28.681Z,2.45
2023-05-16T22:51:56.182Z,2.63
2023-05-16T22:54:23.764Z,2.58
2023-05-16T22:56:51.120Z,2.60
2023-05-16T22:59:18.463Z,3.75
2023-05-16T23:01:45.934Z,3.47
2023-05-16T23:04:13.666Z,3.45
2023-05-16T23:06:41.173Z,2.58
2023-05-16T23:09:08.557Z,5.00
2023-05-16T23:11:36.114Z,10.93
2023-05-16T23:14:03.764Z,4.40
2023-05-16T23:16:31.270Z,3.70
2023-05-16T23:18:58.831Z,4.80
2023-05-16T23:21:26.302Z,3.63
2023-05-16T23:23:54.069Z,6.97
2023-05-16T23:26:21.454Z,15.57
2023-05-16T23:28:49.530Z,11.32
2023-05-16T23:31:17.193Z,6.57
2023-05-16T23:33:44.811Z,5.97
2023-05-16T23:36:12.438Z,5.88
2023-05-16T23:38:39.830Z,8.75
2023-05-16T23:41:07.348Z,9.93
2023-05-16T23:43:34.946Z,9.10
2023-05-16T23:46:02.395Z,8.65
2023-05-16T23:48:30.085Z,5.90
2023-05-16T23:50:58.062Z,7.80
2023-05-16T23:56:13.991Z,5.05
2023-05-16T23:58:41.427Z,4.03
